Kezdőlap
METAR-TAF:

METAR-TAF

Repülőterek :

Kimmirut, Nunavut, Kanada

földrajzi szélesség: 62-51N, földrajzi hosszúság: 069-53W, magasság: 53 m

Jelenlegi meteorológiai megfigyelések

A jelentés 14 órával és 42 perccel ezelõtt készült, 20:00 UTC
Délkeleti szél 20 kt széllökések: 29 kt
Hőmérséklet -4°C
Páratartalom 74%
Légköri nyomás 1005 hPa
Látótávolság: 24.1 km
Szórványos felhőzet 9500 lábon
Szakadozott felhőzet 11000 lábon
alacsony hófúvás

METAR: CYLC 252000Z 14020G29KT 15SM DRSN SCT095 BKN110 M04/M08 A2967 RMK AS3AC3 0.0/1 TRACE LOOSE LASTSTFD OBS/NXT 261100Z SLP054

Idő: 06:42 (10:42 UTC)


TAF: hiányzik

Meteorológiai megfigyelések és előrejelzések több, mint 4000 repülőtéren (METAR és TAF jelentéseket).

A térképen piros és sárga pontok jelzik az elérhető meteorológiai állomásokat.

Mozgassa az egeret a pont fölött, hogy megjelenjen az állomás neve.

Azután kattintson az időjárási megfigyelések és előrejelzések megtekintéséhez.

A térkép megváltoztatása: kattintson a fekete keresztel jelölt zöld gombra ráközelítéshez, a vonallal jelölt zöld gombra távolításhoz, vagy a zöld nyilakra a szomszédos térképek eléréséhez.


METAR-TAF: